Montclair, California
Current Conditions -  °F | °C
As of 4:53 AM on Wednesday 22 Oct 2014 (Local Time) from KONT Reporting Station
Few Clouds Few Clouds  
Wind Chill: 58°   Ceiling: Unl
Heat Index: 58°   Visibility: 10mi
Dew Point: 51°   Wind: 0mph
Humidity: 78%   Direction: NA
Pressure: 29.89"   Gusts: NA
Location:  34.07°N, 117.69°W
Report Text: KONT 221153Z 00000KT 10SM FEW250 14/11 A2989 RMK AO2 SLP112 T01440106 10189 20139 51002
Loading
Personal Weather Stations






























Interactive Weather Map
Tropical Storm Tracking
New forecast layout! Learn more

10-Day Weather Forecast

Advertisements
Track Severe Weather on mobile